sensor_id;sensor_type;location;lat;lon;timestamp;P1;durP1;ratioP1;P2;durP2;ratioP2
77191;SDS011;66172;48.526;8.078;2023-07-16T00:00:15;4.45;;;1.13;;
77191;SDS011;66172;48.526;8.078;2023-07-16T00:02:43;3.47;;;0.90;;
77191;SDS011;66172;48.526;8.078;2023-07-16T00:05:09;3.85;;;0.70;;
77191;SDS011;66172;48.526;8.078;2023-07-16T00:07:35;4.20;;;0.90;;
77191;SDS011;66172;48.526;8.078;2023-07-16T00:10:01;4.57;;;0.70;;
77191;SDS011;66172;48.526;8.078;2023-07-16T00:12:27;3.90;;;0.90;;
77191;SDS011;66172;48.526;8.078;2023-07-16T00:14:53;3.60;;;0.90;;
77191;SDS011;66172;48.526;8.078;2023-07-16T00:17:20;3.67;;;0.90;;
77191;SDS011;66172;48.526;8.078;2023-07-16T00:19:46;4.85;;;0.70;;
77191;SDS011;66172;48.526;8.078;2023-07-16T00:22:12;3.75;;;0.90;;
77191;SDS011;66172;48.526;8.078;2023-07-16T00:24:38;3.97;;;1.00;;
77191;SDS011;66172;48.526;8.078;2023-07-16T00:27:04;3.70;;;1.00;;
77191;SDS011;66172;48.526;8.078;2023-07-16T00:29:30;4.07;;;1.20;;
77191;SDS011;66172;48.526;8.078;2023-07-16T00:31:56;3.65;;;0.70;;
77191;SDS011;66172;48.526;8.078;2023-07-16T00:34:21;3.80;;;1.10;;
77191;SDS011;66172;48.526;8.078;2023-07-16T00:36:47;4.25;;;1.00;;
77191;SDS011;66172;48.526;8.078;2023-07-16T00:39:13;4.32;;;1.08;;
77191;SDS011;66172;48.526;8.078;2023-07-16T00:41:39;5.05;;;1.23;;
77191;SDS011;66172;48.526;8.078;2023-07-16T00:44:06;4.33;;;1.10;;
77191;SDS011;66172;48.526;8.078;2023-07-16T00:46:31;3.95;;;1.00;;
77191;SDS011;66172;48.526;8.078;2023-07-16T00:48:57;3.55;;;0.80;;
77191;SDS011;66172;48.526;8.078;2023-07-16T00:51:24;3.40;;;0.80;;
77191;SDS011;66172;48.526;8.078;2023-07-16T00:53:51;4.33;;;0.90;;
77191;SDS011;66172;48.526;8.078;2023-07-16T00:56:17;4.30;;;0.80;;
77191;SDS011;66172;48.526;8.078;2023-07-16T00:58:44;3.60;;;0.80;;
77191;SDS011;66172;48.526;8.078;2023-07-16T01:01:10;5.80;;;1.00;;
77191;SDS011;66172;48.526;8.078;2023-07-16T01:03:36;3.43;;;0.80;;
77191;SDS011;66172;48.526;8.078;2023-07-16T01:06:14;3.92;;;0.80;;
77191;SDS011;66172;48.526;8.078;2023-07-16T01:08:59;5.40;;;0.95;;
77191;SDS011;66172;48.526;8.078;2023-07-16T01:11:28;4.05;;;1.08;;
77191;SDS011;66172;48.526;8.078;2023-07-16T01:13:55;4.10;;;1.17;;
77191;SDS011;66172;48.526;8.078;2023-07-16T01:16:23;5.77;;;0.93;;
77191;SDS011;66172;48.526;8.078;2023-07-16T01:18:50;3.45;;;0.85;;
77191;SDS011;66172;48.526;8.078;2023-07-16T01:21:18;3.97;;;1.00;;
77191;SDS011;66172;48.526;8.078;2023-07-16T01:23:53;5.25;;;0.98;;
77191;SDS011;66172;48.526;8.078;2023-07-16T01:32:06;3.80;;;0.75;;
77191;SDS011;66172;48.526;8.078;2023-07-16T01:34:33;4.13;;;0.80;;
77191;SDS011;66172;48.526;8.078;2023-07-16T01:37:01;4.15;;;0.88;;
77191;SDS011;66172;48.526;8.078;2023-07-16T01:39:28;3.80;;;0.80;;
77191;SDS011;66172;48.526;8.078;2023-07-16T01:41:55;3.60;;;0.80;;
77191;SDS011;66172;48.526;8.078;2023-07-16T01:44:21;3.40;;;0.80;;
77191;SDS011;66172;48.526;8.078;2023-07-16T01:46:49;4.38;;;1.10;;
77191;SDS011;66172;48.526;8.078;2023-07-16T01:49:35;4.57;;;0.90;;
77191;SDS011;66172;48.526;8.078;2023-07-16T01:52:01;5.95;;;1.00;;
77191;SDS011;66172;48.526;8.078;2023-07-16T01:54:28;4.37;;;0.90;;
77191;SDS011;66172;48.526;8.078;2023-07-16T01:56:54;4.15;;;1.13;;
77191;SDS011;66172;48.526;8.078;2023-07-16T01:59:20;4.47;;;0.98;;
77191;SDS011;66172;48.526;8.078;2023-07-16T02:01:46;3.05;;;0.70;;
77191;SDS011;66172;48.526;8.078;2023-07-16T02:04:12;4.07;;;0.87;;
77191;SDS011;66172;48.526;8.078;2023-07-16T02:06:38;4.45;;;1.00;;
77191;SDS011;66172;48.526;8.078;2023-07-16T02:09:04;4.88;;;1.20;;
77191;SDS011;66172;48.526;8.078;2023-07-16T02:11:30;3.63;;;0.80;;
77191;SDS011;66172;48.526;8.078;2023-07-16T02:13:56;3.70;;;0.90;;
77191;SDS011;66172;48.526;8.078;2023-07-16T02:16:21;3.40;;;0.77;;
77191;SDS011;66172;48.526;8.078;2023-07-16T02:18:48;3.40;;;0.93;;
77191;SDS011;66172;48.526;8.078;2023-07-16T02:21:14;4.55;;;0.75;;
77191;SDS011;66172;48.526;8.078;2023-07-16T02:23:40;3.77;;;1.10;;
77191;SDS011;66172;48.526;8.078;2023-07-16T02:26:06;5.30;;;0.98;;
77191;SDS011;66172;48.526;8.078;2023-07-16T02:28:31;3.70;;;1.10;;
77191;SDS011;66172;48.526;8.078;2023-07-16T02:30:58;3.97;;;0.87;;
77191;SDS011;66172;48.526;8.078;2023-07-16T02:33:24;4.13;;;1.08;;
77191;SDS011;66172;48.526;8.078;2023-07-16T02:35:50;3.88;;;0.90;;
77191;SDS011;66172;48.526;8.078;2023-07-16T02:38:17;4.05;;;1.00;;
77191;SDS011;66172;48.526;8.078;2023-07-16T02:40:43;4.53;;;1.03;;
77191;SDS011;66172;48.526;8.078;2023-07-16T02:43:13;5.35;;;0.90;;
77191;SDS011;66172;48.526;8.078;2023-07-16T02:45:40;4.05;;;1.10;;
77191;SDS011;66172;48.526;8.078;2023-07-16T02:48:06;7.35;;;1.00;;
77191;SDS011;66172;48.526;8.078;2023-07-16T02:50:38;5.50;;;1.20;;
77191;SDS011;66172;48.526;8.078;2023-07-16T02:53:04;4.50;;;0.80;;
77191;SDS011;66172;48.526;8.078;2023-07-16T02:55:31;4.53;;;1.00;;
77191;SDS011;66172;48.526;8.078;2023-07-16T02:57:57;5.70;;;0.98;;
77191;SDS011;66172;48.526;8.078;2023-07-16T03:00:23;4.07;;;1.00;;
77191;SDS011;66172;48.526;8.078;2023-07-16T03:02:49;3.95;;;1.00;;
77191;SDS011;66172;48.526;8.078;2023-07-16T03:05:16;4.17;;;0.83;;
77191;SDS011;66172;48.526;8.078;2023-07-16T03:07:42;5.57;;;1.13;;
77191;SDS011;66172;48.526;8.078;2023-07-16T03:10:08;4.55;;;1.23;;
77191;SDS011;66172;48.526;8.078;2023-07-16T03:12:34;4.07;;;1.00;;
77191;SDS011;66172;48.526;8.078;2023-07-16T03:15:00;4.63;;;1.20;;
77191;SDS011;66172;48.526;8.078;2023-07-16T03:17:26;4.70;;;1.00;;
77191;SDS011;66172;48.526;8.078;2023-07-16T03:19:52;6.03;;;1.40;;
77191;SDS011;66172;48.526;8.078;2023-07-16T03:22:18;4.85;;;0.98;;
77191;SDS011;66172;48.526;8.078;2023-07-16T03:24:44;3.73;;;0.90;;
77191;SDS011;66172;48.526;8.078;2023-07-16T03:27:10;7.25;;;1.20;;
77191;SDS011;66172;48.526;8.078;2023-07-16T03:29:35;5.95;;;1.02;;
77191;SDS011;66172;48.526;8.078;2023-07-16T03:32:02;5.18;;;1.38;;
77191;SDS011;66172;48.526;8.078;2023-07-16T03:34:28;5.13;;;1.20;;
77191;SDS011;66172;48.526;8.078;2023-07-16T03:36:54;4.55;;;1.10;;
77191;SDS011;66172;48.526;8.078;2023-07-16T03:39:20;5.00;;;1.30;;
77191;SDS011;66172;48.526;8.078;2023-07-16T03:41:45;5.90;;;1.20;;
77191;SDS011;66172;48.526;8.078;2023-07-16T03:44:11;5.95;;;0.90;;
77191;SDS011;66172;48.526;8.078;2023-07-16T03:46:37;4.55;;;1.27;;
77191;SDS011;66172;48.526;8.078;2023-07-16T03:49:06;3.70;;;0.95;;
77191;SDS011;66172;48.526;8.078;2023-07-16T03:51:32;4.40;;;0.90;;
77191;SDS011;66172;48.526;8.078;2023-07-16T03:53:58;4.20;;;1.20;;
77191;SDS011;66172;48.526;8.078;2023-07-16T03:56:24;5.25;;;1.00;;
77191;SDS011;66172;48.526;8.078;2023-07-16T03:58:50;3.90;;;1.10;;
77191;SDS011;66172;48.526;8.078;2023-07-16T04:01:16;4.13;;;1.33;;
77191;SDS011;66172;48.526;8.078;2023-07-16T04:03:42;5.15;;;1.27;;
77191;SDS011;66172;48.526;8.078;2023-07-16T04:06:08;4.45;;;1.00;;
77191;SDS011;66172;48.526;8.078;2023-07-16T04:08:35;4.10;;;1.20;;
77191;SDS011;66172;48.526;8.078;2023-07-16T04:11:04;3.75;;;1.00;;
77191;SDS011;66172;48.526;8.078;2023-07-16T04:13:31;3.90;;;1.10;;
77191;SDS011;66172;48.526;8.078;2023-07-16T04:15:57;6.25;;;0.98;;
77191;SDS011;66172;48.526;8.078;2023-07-16T04:18:23;4.47;;;0.95;;
77191;SDS011;66172;48.526;8.078;2023-07-16T04:20:50;4.37;;;1.40;;
77191;SDS011;66172;48.526;8.078;2023-07-16T04:23:16;4.47;;;1.20;;
77191;SDS011;66172;48.526;8.078;2023-07-16T04:25:42;4.88;;;1.20;;
77191;SDS011;66172;48.526;8.078;2023-07-16T04:28:09;5.65;;;1.17;;
77191;SDS011;66172;48.526;8.078;2023-07-16T04:30:35;5.50;;;1.45;;
77191;SDS011;66172;48.526;8.078;2023-07-16T04:33:03;4.13;;;1.07;;
77191;SDS011;66172;48.526;8.078;2023-07-16T04:35:29;6.60;;;1.35;;
77191;SDS011;66172;48.526;8.078;2023-07-16T04:37:55;5.93;;;1.25;;
77191;SDS011;66172;48.526;8.078;2023-07-16T04:40:21;4.57;;;1.02;;
77191;SDS011;66172;48.526;8.078;2023-07-16T04:42:47;4.43;;;1.07;;
77191;SDS011;66172;48.526;8.078;2023-07-16T04:45:13;7.70;;;1.50;;
77191;SDS011;66172;48.526;8.078;2023-07-16T04:47:39;4.53;;;1.08;;
77191;SDS011;66172;48.526;8.078;2023-07-16T04:50:05;5.70;;;1.40;;
77191;SDS011;66172;48.526;8.078;2023-07-16T04:52:31;6.00;;;1.30;;
77191;SDS011;66172;48.526;8.078;2023-07-16T04:54:57;4.95;;;1.35;;
77191;SDS011;66172;48.526;8.078;2023-07-16T04:57:23;4.97;;;1.20;;
77191;SDS011;66172;48.526;8.078;2023-07-16T04:59:49;4.68;;;1.30;;
77191;SDS011;66172;48.526;8.078;2023-07-16T05:02:15;4.90;;;1.00;;
77191;SDS011;66172;48.526;8.078;2023-07-16T05:04:42;8.57;;;1.38;;
77191;SDS011;66172;48.526;8.078;2023-07-16T05:07:09;6.20;;;1.10;;
77191;SDS011;66172;48.526;8.078;2023-07-16T05:09:35;7.30;;;1.10;;
77191;SDS011;66172;48.526;8.078;2023-07-16T05:12:01;4.32;;;1.25;;
77191;SDS011;66172;48.526;8.078;2023-07-16T05:14:28;4.07;;;1.17;;
77191;SDS011;66172;48.526;8.078;2023-07-16T05:16:54;5.45;;;1.45;;
77191;SDS011;66172;48.526;8.078;2023-07-16T05:19:21;5.22;;;1.52;;
77191;SDS011;66172;48.526;8.078;2023-07-16T05:21:47;5.95;;;1.20;;
77191;SDS011;66172;48.526;8.078;2023-07-16T05:24:13;5.10;;;1.20;;
77191;SDS011;66172;48.526;8.078;2023-07-16T05:26:39;4.85;;;0.98;;
77191;SDS011;66172;48.526;8.078;2023-07-16T05:29:05;5.82;;;1.30;;
77191;SDS011;66172;48.526;8.078;2023-07-16T05:31:31;5.70;;;1.20;;
77191;SDS011;66172;48.526;8.078;2023-07-16T05:33:56;7.23;;;1.43;;
77191;SDS011;66172;48.526;8.078;2023-07-16T05:36:22;3.75;;;1.00;;
77191;SDS011;66172;48.526;8.078;2023-07-16T05:38:48;6.18;;;1.23;;
77191;SDS011;66172;48.526;8.078;2023-07-16T05:41:14;5.90;;;1.23;;
77191;SDS011;66172;48.526;8.078;2023-07-16T05:43:40;6.43;;;1.30;;
77191;SDS011;66172;48.526;8.078;2023-07-16T05:46:06;7.22;;;1.52;;
77191;SDS011;66172;48.526;8.078;2023-07-16T05:48:32;5.80;;;1.38;;
77191;SDS011;66172;48.526;8.078;2023-07-16T05:50:58;6.60;;;1.30;;
77191;SDS011;66172;48.526;8.078;2023-07-16T05:53:23;5.82;;;1.08;;
77191;SDS011;66172;48.526;8.078;2023-07-16T05:55:49;7.15;;;1.30;;
77191;SDS011;66172;48.526;8.078;2023-07-16T05:58:17;4.00;;;1.30;;
77191;SDS011;66172;48.526;8.078;2023-07-16T06:00:43;5.32;;;1.10;;
77191;SDS011;66172;48.526;8.078;2023-07-16T06:03:09;4.72;;;1.10;;
77191;SDS011;66172;48.526;8.078;2023-07-16T06:05:35;6.75;;;1.20;;
77191;SDS011;66172;48.526;8.078;2023-07-16T06:08:02;6.03;;;1.10;;
77191;SDS011;66172;48.526;8.078;2023-07-16T06:10:28;4.85;;;1.20;;
77191;SDS011;66172;48.526;8.078;2023-07-16T06:12:54;4.63;;;0.80;;
77191;SDS011;66172;48.526;8.078;2023-07-16T06:15:20;6.25;;;1.10;;
77191;SDS011;66172;48.526;8.078;2023-07-16T06:17:46;7.07;;;1.07;;
77191;SDS011;66172;48.526;8.078;2023-07-16T06:20:12;6.90;;;1.00;;
77191;SDS011;66172;48.526;8.078;2023-07-16T06:22:38;5.70;;;1.15;;
77191;SDS011;66172;48.526;8.078;2023-07-16T06:25:03;5.33;;;1.53;;
77191;SDS011;66172;48.526;8.078;2023-07-16T06:27:30;6.78;;;1.10;;
77191;SDS011;66172;48.526;8.078;2023-07-16T06:29:56;4.75;;;1.20;;
77191;SDS011;66172;48.526;8.078;2023-07-16T06:32:22;4.53;;;1.05;;
77191;SDS011;66172;48.526;8.078;2023-07-16T06:34:47;5.37;;;1.10;;
77191;SDS011;66172;48.526;8.078;2023-07-16T06:37:13;4.38;;;1.02;;
77191;SDS011;66172;48.526;8.078;2023-07-16T06:39:39;4.00;;;1.00;;
77191;SDS011;66172;48.526;8.078;2023-07-16T06:42:05;4.20;;;1.07;;
77191;SDS011;66172;48.526;8.078;2023-07-16T06:44:31;5.82;;;1.10;;
77191;SDS011;66172;48.526;8.078;2023-07-16T06:46:57;5.00;;;1.10;;
77191;SDS011;66172;48.526;8.078;2023-07-16T06:49:23;3.88;;;0.90;;
77191;SDS011;66172;48.526;8.078;2023-07-16T06:51:49;4.83;;;0.97;;
77191;SDS011;66172;48.526;8.078;2023-07-16T06:54:15;5.47;;;1.73;;
77191;SDS011;66172;48.526;8.078;2023-07-16T06:56:41;4.30;;;0.90;;
77191;SDS011;66172;48.526;8.078;2023-07-16T06:59:06;4.35;;;1.17;;
77191;SDS011;66172;48.526;8.078;2023-07-16T07:01:32;4.73;;;0.90;;
77191;SDS011;66172;48.526;8.078;2023-07-16T07:03:58;4.57;;;1.13;;
77191;SDS011;66172;48.526;8.078;2023-07-16T07:06:24;6.43;;;1.23;;
77191;SDS011;66172;48.526;8.078;2023-07-16T07:08:50;4.27;;;1.20;;
77191;SDS011;66172;48.526;8.078;2023-07-16T07:11:16;5.60;;;1.10;;
77191;SDS011;66172;48.526;8.078;2023-07-16T07:13:42;4.90;;;1.02;;
77191;SDS011;66172;48.526;8.078;2023-07-16T07:16:08;4.43;;;0.88;;
77191;SDS011;66172;48.526;8.078;2023-07-16T07:18:34;4.70;;;1.10;;
77191;SDS011;66172;48.526;8.078;2023-07-16T07:21:00;5.25;;;1.00;;
77191;SDS011;66172;48.526;8.078;2023-07-16T07:23:26;6.53;;;1.13;;
77191;SDS011;66172;48.526;8.078;2023-07-16T07:25:52;4.50;;;1.00;;
77191;SDS011;66172;48.526;8.078;2023-07-16T07:28:19;5.25;;;1.35;;
77191;SDS011;66172;48.526;8.078;2023-07-16T07:30:45;4.55;;;1.15;;
77191;SDS011;66172;48.526;8.078;2023-07-16T07:33:11;6.75;;;1.30;;
77191;SDS011;66172;48.526;8.078;2023-07-16T07:35:37;5.72;;;1.30;;
77191;SDS011;66172;48.526;8.078;2023-07-16T07:38:03;7.70;;;1.00;;
77191;SDS011;66172;48.526;8.078;2023-07-16T07:40:29;4.53;;;1.20;;
77191;SDS011;66172;48.526;8.078;2023-07-16T07:42:55;5.15;;;1.30;;
77191;SDS011;66172;48.526;8.078;2023-07-16T07:45:21;5.53;;;1.13;;
77191;SDS011;66172;48.526;8.078;2023-07-16T07:47:47;6.40;;;1.63;;
77191;SDS011;66172;48.526;8.078;2023-07-16T07:50:14;4.65;;;1.15;;
77191;SDS011;66172;48.526;8.078;2023-07-16T07:52:40;6.10;;;1.20;;
77191;SDS011;66172;48.526;8.078;2023-07-16T07:55:06;5.33;;;1.30;;
77191;SDS011;66172;48.526;8.078;2023-07-16T07:57:32;5.25;;;1.00;;
77191;SDS011;66172;48.526;8.078;2023-07-16T07:59:58;4.50;;;1.20;;
77191;SDS011;66172;48.526;8.078;2023-07-16T08:02:24;6.82;;;1.30;;
77191;SDS011;66172;48.526;8.078;2023-07-16T08:04:53;5.30;;;1.30;;
77191;SDS011;66172;48.526;8.078;2023-07-16T08:07:21;5.15;;;1.20;;
77191;SDS011;66172;48.526;8.078;2023-07-16T08:09:47;6.40;;;1.60;;
77191;SDS011;66172;48.526;8.078;2023-07-16T08:12:14;4.50;;;1.10;;
77191;SDS011;66172;48.526;8.078;2023-07-16T08:14:40;4.47;;;1.17;;
77191;SDS011;66172;48.526;8.078;2023-07-16T08:17:07;4.43;;;1.23;;
77191;SDS011;66172;48.526;8.078;2023-07-16T08:19:33;4.53;;;1.42;;
77191;SDS011;66172;48.526;8.078;2023-07-16T08:21:59;4.78;;;1.50;;
77191;SDS011;66172;48.526;8.078;2023-07-16T08:24:25;6.55;;;2.35;;
77191;SDS011;66172;48.526;8.078;2023-07-16T08:26:51;8.63;;;1.50;;
77191;SDS011;66172;48.526;8.078;2023-07-16T08:29:17;5.82;;;1.38;;
77191;SDS011;66172;48.526;8.078;2023-07-16T08:31:43;4.75;;;1.45;;
77191;SDS011;66172;48.526;8.078;2023-07-16T08:34:08;5.50;;;1.33;;
77191;SDS011;66172;48.526;8.078;2023-07-16T08:36:35;6.23;;;1.40;;
77191;SDS011;66172;48.526;8.078;2023-07-16T08:39:01;6.30;;;1.30;;
77191;SDS011;66172;48.526;8.078;2023-07-16T08:41:27;4.32;;;1.30;;
77191;SDS011;66172;48.526;8.078;2023-07-16T08:43:54;5.57;;;1.60;;
77191;SDS011;66172;48.526;8.078;2023-07-16T08:46:20;5.28;;;1.58;;
77191;SDS011;66172;48.526;8.078;2023-07-16T08:48:46;6.43;;;1.50;;
77191;SDS011;66172;48.526;8.078;2023-07-16T08:51:16;4.70;;;1.58;;
77191;SDS011;66172;48.526;8.078;2023-07-16T08:53:42;7.15;;;1.60;;
77191;SDS011;66172;48.526;8.078;2023-07-16T08:56:09;5.47;;;1.15;;
77191;SDS011;66172;48.526;8.078;2023-07-16T08:58:35;4.70;;;1.30;;
77191;SDS011;66172;48.526;8.078;2023-07-16T09:01:03;6.63;;;1.60;;
77191;SDS011;66172;48.526;8.078;2023-07-16T09:03:30;4.90;;;1.63;;
77191;SDS011;66172;48.526;8.078;2023-07-16T09:05:56;4.70;;;1.95;;
77191;SDS011;66172;48.526;8.078;2023-07-16T09:08:22;5.55;;;1.35;;
77191;SDS011;66172;48.526;8.078;2023-07-16T09:10:57;5.85;;;1.55;;
77191;SDS011;66172;48.526;8.078;2023-07-16T09:13:23;3.93;;;1.30;;
77191;SDS011;66172;48.526;8.078;2023-07-16T09:15:54;4.80;;;1.40;;
77191;SDS011;66172;48.526;8.078;2023-07-16T09:18:21;5.60;;;1.42;;
77191;SDS011;66172;48.526;8.078;2023-07-16T09:20:48;5.25;;;1.55;;
77191;SDS011;66172;48.526;8.078;2023-07-16T09:23:19;4.93;;;1.52;;
77191;SDS011;66172;48.526;8.078;2023-07-16T09:25:45;4.60;;;1.40;;
77191;SDS011;66172;48.526;8.078;2023-07-16T09:28:11;7.10;;;1.60;;
77191;SDS011;66172;48.526;8.078;2023-07-16T09:30:37;6.65;;;1.40;;
77191;SDS011;66172;48.526;8.078;2023-07-16T09:33:13;6.85;;;1.63;;
77191;SDS011;66172;48.526;8.078;2023-07-16T09:35:40;9.97;;;1.40;;
77191;SDS011;66172;48.526;8.078;2023-07-16T09:38:07;7.30;;;1.60;;
77191;SDS011;66172;48.526;8.078;2023-07-16T09:40:38;5.63;;;1.38;;
77191;SDS011;66172;48.526;8.078;2023-07-16T09:43:06;4.25;;;1.38;;
77191;SDS011;66172;48.526;8.078;2023-07-16T09:45:32;5.85;;;1.60;;
77191;SDS011;66172;48.526;8.078;2023-07-16T09:47:58;7.00;;;1.43;;
77191;SDS011;66172;48.526;8.078;2023-07-16T09:50:24;6.35;;;1.83;;
77191;SDS011;66172;48.526;8.078;2023-07-16T09:52:57;5.93;;;1.50;;
77191;SDS011;66172;48.526;8.078;2023-07-16T09:55:24;6.70;;;1.50;;
77191;SDS011;66172;48.526;8.078;2023-07-16T09:57:52;6.90;;;1.88;;
77191;SDS011;66172;48.526;8.078;2023-07-16T10:00:20;5.33;;;1.70;;
77191;SDS011;66172;48.526;8.078;2023-07-16T10:02:48;4.45;;;1.27;;
77191;SDS011;66172;48.526;8.078;2023-07-16T10:05:16;5.72;;;1.60;;
77191;SDS011;66172;48.526;8.078;2023-07-16T10:07:49;8.05;;;1.45;;
77191;SDS011;66172;48.526;8.078;2023-07-16T10:10:16;5.68;;;1.60;;
77191;SDS011;66172;48.526;8.078;2023-07-16T10:12:43;6.77;;;1.63;;
77191;SDS011;66172;48.526;8.078;2023-07-16T10:15:27;4.38;;;1.63;;
77191;SDS011;66172;48.526;8.078;2023-07-16T10:17:56;5.57;;;1.70;;
77191;SDS011;66172;48.526;8.078;2023-07-16T10:20:35;4.97;;;1.75;;
77191;SDS011;66172;48.526;8.078;2023-07-16T10:23:11;8.57;;;1.93;;
77191;SDS011;66172;48.526;8.078;2023-07-16T10:25:38;5.38;;;1.52;;
77191;SDS011;66172;48.526;8.078;2023-07-16T10:28:04;5.28;;;1.50;;
77191;SDS011;66172;48.526;8.078;2023-07-16T10:30:30;5.35;;;1.67;;
77191;SDS011;66172;48.526;8.078;2023-07-16T10:32:57;4.57;;;1.40;;
77191;SDS011;66172;48.526;8.078;2023-07-16T10:35:23;5.97;;;1.57;;
77191;SDS011;66172;48.526;8.078;2023-07-16T10:37:48;5.78;;;2.05;;
77191;SDS011;66172;48.526;8.078;2023-07-16T10:40:15;7.57;;;1.75;;
77191;SDS011;66172;48.526;8.078;2023-07-16T10:42:42;7.53;;;2.10;;
77191;SDS011;66172;48.526;8.078;2023-07-16T10:45:09;6.25;;;1.70;;
77191;SDS011;66172;48.526;8.078;2023-07-16T10:47:36;7.80;;;1.80;;
77191;SDS011;66172;48.526;8.078;2023-07-16T10:50:04;5.65;;;1.80;;
77191;SDS011;66172;48.526;8.078;2023-07-16T10:52:34;6.22;;;1.60;;
77191;SDS011;66172;48.526;8.078;2023-07-16T10:55:01;6.67;;;2.10;;
77191;SDS011;66172;48.526;8.078;2023-07-16T10:57:28;5.70;;;2.00;;
77191;SDS011;66172;48.526;8.078;2023-07-16T10:59:55;6.85;;;1.38;;
77191;SDS011;66172;48.526;8.078;2023-07-16T11:02:22;6.15;;;1.77;;
77191;SDS011;66172;48.526;8.078;2023-07-16T11:04:49;5.63;;;1.80;;
77191;SDS011;66172;48.526;8.078;2023-07-16T11:07:18;5.83;;;1.70;;
77191;SDS011;66172;48.526;8.078;2023-07-16T11:09:46;6.28;;;1.60;;
77191;SDS011;66172;48.526;8.078;2023-07-16T11:12:17;6.38;;;1.63;;
77191;SDS011;66172;48.526;8.078;2023-07-16T11:14:45;6.13;;;2.00;;
77191;SDS011;66172;48.526;8.078;2023-07-16T11:17:13;5.35;;;1.58;;
77191;SDS011;66172;48.526;8.078;2023-07-16T11:19:40;5.50;;;1.90;;
77191;SDS011;66172;48.526;8.078;2023-07-16T11:22:10;7.38;;;2.63;;
77191;SDS011;66172;48.526;8.078;2023-07-16T11:24:36;6.18;;;1.75;;
77191;SDS011;66172;48.526;8.078;2023-07-16T11:27:18;5.60;;;1.63;;
77191;SDS011;66172;48.526;8.078;2023-07-16T11:29:46;6.13;;;1.90;;
77191;SDS011;66172;48.526;8.078;2023-07-16T11:32:25;5.73;;;2.00;;
77191;SDS011;66172;48.526;8.078;2023-07-16T11:35:02;6.13;;;1.95;;
77191;SDS011;66172;48.526;8.078;2023-07-16T11:37:30;5.00;;;1.85;;
77191;SDS011;66172;48.526;8.078;2023-07-16T11:39:58;3.97;;;1.48;;
77191;SDS011;66172;48.526;8.078;2023-07-16T11:42:30;6.00;;;1.55;;
77191;SDS011;66172;48.526;8.078;2023-07-16T11:44:57;7.30;;;2.20;;
77191;SDS011;66172;48.526;8.078;2023-07-16T11:47:24;5.20;;;1.80;;
77191;SDS011;66172;48.526;8.078;2023-07-16T11:49:50;4.90;;;1.90;;
77191;SDS011;66172;48.526;8.078;2023-07-16T11:52:23;5.80;;;1.90;;
77191;SDS011;66172;48.526;8.078;2023-07-16T11:54:52;4.97;;;1.50;;
77191;SDS011;66172;48.526;8.078;2023-07-16T11:57:19;4.93;;;1.70;;
77191;SDS011;66172;48.526;8.078;2023-07-16T11:59:45;7.05;;;1.90;;
77191;SDS011;66172;48.526;8.078;2023-07-16T12:02:11;7.00;;;2.08;;
77191;SDS011;66172;48.526;8.078;2023-07-16T12:04:38;4.75;;;1.88;;
77191;SDS011;66172;48.526;8.078;2023-07-16T12:07:04;6.57;;;1.55;;
77191;SDS011;66172;48.526;8.078;2023-07-16T12:09:30;4.60;;;1.43;;
77191;SDS011;66172;48.526;8.078;2023-07-16T12:11:56;5.13;;;1.60;;
77191;SDS011;66172;48.526;8.078;2023-07-16T12:14:22;5.85;;;1.60;;
77191;SDS011;66172;48.526;8.078;2023-07-16T12:16:48;5.05;;;1.63;;
77191;SDS011;66172;48.526;8.078;2023-07-16T12:19:14;5.93;;;1.77;;
77191;SDS011;66172;48.526;8.078;2023-07-16T12:21:40;6.35;;;2.15;;
77191;SDS011;66172;48.526;8.078;2023-07-16T12:24:06;5.28;;;1.50;;
77191;SDS011;66172;48.526;8.078;2023-07-16T12:26:32;5.70;;;1.60;;
77191;SDS011;66172;48.526;8.078;2023-07-16T12:28:57;5.13;;;1.60;;
77191;SDS011;66172;48.526;8.078;2023-07-16T12:31:23;7.03;;;1.85;;
77191;SDS011;66172;48.526;8.078;2023-07-16T12:33:49;5.15;;;1.70;;
77191;SDS011;66172;48.526;8.078;2023-07-16T12:36:15;5.37;;;1.57;;
77191;SDS011;66172;48.526;8.078;2023-07-16T12:38:41;5.78;;;2.08;;
77191;SDS011;66172;48.526;8.078;2023-07-16T12:41:07;5.13;;;1.80;;
77191;SDS011;66172;48.526;8.078;2023-07-16T12:43:33;5.72;;;1.80;;
77191;SDS011;66172;48.526;8.078;2023-07-16T12:46:00;6.07;;;1.80;;
77191;SDS011;66172;48.526;8.078;2023-07-16T12:48:28;5.22;;;1.60;;
77191;SDS011;66172;48.526;8.078;2023-07-16T12:50:55;5.18;;;1.90;;
77191;SDS011;66172;48.526;8.078;2023-07-16T12:53:21;7.45;;;1.80;;
77191;SDS011;66172;48.526;8.078;2023-07-16T12:55:47;5.30;;;1.70;;
77191;SDS011;66172;48.526;8.078;2023-07-16T12:58:12;5.93;;;1.60;;
77191;SDS011;66172;48.526;8.078;2023-07-16T13:00:38;6.07;;;1.88;;
77191;SDS011;66172;48.526;8.078;2023-07-16T13:03:04;6.47;;;1.73;;
77191;SDS011;66172;48.526;8.078;2023-07-16T13:05:30;6.93;;;1.70;;
77191;SDS011;66172;48.526;8.078;2023-07-16T13:07:56;5.87;;;1.90;;
77191;SDS011;66172;48.526;8.078;2023-07-16T13:10:22;5.90;;;1.90;;
77191;SDS011;66172;48.526;8.078;2023-07-16T13:12:49;7.07;;;1.95;;
77191;SDS011;66172;48.526;8.078;2023-07-16T13:15:14;7.50;;;1.80;;
77191;SDS011;66172;48.526;8.078;2023-07-16T13:17:40;5.53;;;1.47;;
77191;SDS011;66172;48.526;8.078;2023-07-16T13:20:06;5.20;;;1.70;;
77191;SDS011;66172;48.526;8.078;2023-07-16T13:22:32;6.30;;;1.85;;
77191;SDS011;66172;48.526;8.078;2023-07-16T13:24:58;5.57;;;1.70;;
77191;SDS011;66172;48.526;8.078;2023-07-16T13:27:25;5.88;;;1.70;;
77191;SDS011;66172;48.526;8.078;2023-07-16T13:29:50;6.97;;;1.95;;
77191;SDS011;66172;48.526;8.078;2023-07-16T13:32:16;6.50;;;1.88;;
77191;SDS011;66172;48.526;8.078;2023-07-16T13:34:42;6.97;;;1.77;;
77191;SDS011;66172;48.526;8.078;2023-07-16T13:37:09;10.13;;;2.15;;
77191;SDS011;66172;48.526;8.078;2023-07-16T13:39:35;5.30;;;1.70;;
77191;SDS011;66172;48.526;8.078;2023-07-16T13:42:01;5.72;;;1.80;;
77191;SDS011;66172;48.526;8.078;2023-07-16T13:44:27;5.93;;;1.90;;
77191;SDS011;66172;48.526;8.078;2023-07-16T13:46:52;5.53;;;1.90;;
77191;SDS011;66172;48.526;8.078;2023-07-16T13:49:19;6.03;;;1.70;;
77191;SDS011;66172;48.526;8.078;2023-07-16T13:51:44;6.63;;;2.22;;
77191;SDS011;66172;48.526;8.078;2023-07-16T13:54:11;5.33;;;1.67;;
77191;SDS011;66172;48.526;8.078;2023-07-16T13:56:37;6.43;;;2.20;;
77191;SDS011;66172;48.526;8.078;2023-07-16T13:59:03;6.28;;;2.05;;
77191;SDS011;66172;48.526;8.078;2023-07-16T14:01:29;6.65;;;1.80;;
77191;SDS011;66172;48.526;8.078;2023-07-16T14:03:55;7.70;;;1.90;;
77191;SDS011;66172;48.526;8.078;2023-07-16T14:06:21;6.65;;;2.08;;
77191;SDS011;66172;48.526;8.078;2023-07-16T14:08:47;5.82;;;1.80;;
77191;SDS011;66172;48.526;8.078;2023-07-16T14:11:13;5.78;;;1.95;;
77191;SDS011;66172;48.526;8.078;2023-07-16T14:13:39;6.30;;;2.13;;
77191;SDS011;66172;48.526;8.078;2023-07-16T14:16:05;4.95;;;1.75;;
77191;SDS011;66172;48.526;8.078;2023-07-16T14:18:31;7.15;;;1.90;;
77191;SDS011;66172;48.526;8.078;2023-07-16T14:20:57;5.10;;;1.90;;
77191;SDS011;66172;48.526;8.078;2023-07-16T14:23:23;5.37;;;1.70;;
77191;SDS011;66172;48.526;8.078;2023-07-16T14:25:49;6.55;;;2.42;;
77191;SDS011;66172;48.526;8.078;2023-07-16T14:28:14;6.70;;;2.40;;
77191;SDS011;66172;48.526;8.078;2023-07-16T14:30:40;6.72;;;2.10;;
77191;SDS011;66172;48.526;8.078;2023-07-16T14:33:06;6.43;;;1.73;;
77191;SDS011;66172;48.526;8.078;2023-07-16T14:35:33;6.03;;;1.95;;
77191;SDS011;66172;48.526;8.078;2023-07-16T14:37:59;6.88;;;1.90;;
77191;SDS011;66172;48.526;8.078;2023-07-16T14:40:25;5.43;;;1.90;;
77191;SDS011;66172;48.526;8.078;2023-07-16T14:42:51;7.57;;;2.03;;
77191;SDS011;66172;48.526;8.078;2023-07-16T14:45:17;4.97;;;1.73;;
77191;SDS011;66172;48.526;8.078;2023-07-16T14:47:43;5.40;;;2.05;;
77191;SDS011;66172;48.526;8.078;2023-07-16T14:50:09;6.60;;;1.65;;